Taos Ski Valley, NM

7:12 AM MDT on September 21, 2014 (GMT -0600)
Las Vegas Municipal | Change Station
CLOSE
Current Station
Airport
Location: Las Vegas,
Elevation: 6877 ft
Nearby Weather Stations

Elev 6877 ft 35.65 °N, 105.14 °W | Updated 19 minutes ago

Clear
Clear
50 °F
Feels Like 50 °F
N
6
Wind Variable Wind from North

Today
High -- | Low -- °F
--% Chance of Precip.
Yesterday
High -- | Low -- °F
Precip. -- in
6:49 AM 7:00 PM
Waning Crescent, 7% visible
Pressure 30.16 in
Visibility 10.0 miles
Clouds Few 3300 ft
Dew Point 48 °F
Humidity 93%
Rainfall 0.00 in
Snow Depth 0 in , 3 in , 1 in
UV 0 out of 12
Pollen 4.60 out of 12
Air Quality Not available.
Flu Activity Not available.
METAR KLVS 211253Z AUTO 01005KT 10SM FEW033 10/09 A3042 RMK AO2 SLP213 T01000089

More Conditions Fewer Conditions

Pressure 30.16 in
Visibility 10.0 miles
Clouds Few 3300 ft
Dew Point 48 °F
Humidity 93%
Rainfall 0.00 in
Snow Depth 0 in , 3 in , 1 in
UV 0 out of 12
Pollen 4.60 out of 12
Air Quality Not available.
Flu Activity Not available.
METAR KLVS 211253Z AUTO 01005KT 10SM FEW033 10/09 A3042 RMK AO2 SLP213 T01000089

More Conditions Fewer Conditions

10-Day Weather Forecast

Almanac

Astronomy

Sep. 21, 2014 Rise Set
Actual Time 6:49 AM MDT 7:00 PM MDT
Civil Twilight 6:23 AM MDT 7:26 PM MDT
Nautical Twilight 5:53 AM MDT 7:56 PM MDT
Astronomical Twilight 5:23 AM MDT 8:26 PM MDT
Moon 4:28 AM MDT 5:35 PM MDT
Length of Visible Light 13h 02m
Length of Day
12h 11m
Tomorrow will be 2m 17s shorter.
Waning Crescent, 7% of the Moon is Illuminated
Today
Waning Crescent
Sep 24
New
Oct 1
First Quarter
Oct 8
Full
Oct 15
Last Quarter

Today's Extremes

State Highs State Lows

Community

WunderPhotos

Upload Photos

1,755,136 photos uploaded!

Nearby

Snow Depth

Station Depth Elevation
Elk Cabin 0 in 8210 ft
Wesner Springs 3 in 11120 ft
Silver Creek Divide 1 in 9000 ft
Signal Peak 1 in 8360 ft
Sierra Blanca 1 in 10280 ft

Earthquake Activity

City Distance Mag. Time & Date
No recent earthquake activity has been reported nearby.
Minimum magnitude displayed is 2.5.

Coastal Water Temperatures

Place Temperature
No Stations Reporting

Nearby Weather Stations